sensor_id;sensor_type;location;lat;lon;timestamp;temperature;humidity
22456;DHT22;11395;53.204;6.502;2023-06-04T00:02:00;23.30;60.90
22456;DHT22;11395;53.204;6.502;2023-06-04T00:04:26;23.30;60.80
22456;DHT22;11395;53.204;6.502;2023-06-04T00:06:53;23.20;61.20
22456;DHT22;11395;53.204;6.502;2023-06-04T00:09:19;23.20;61.20
22456;DHT22;11395;53.204;6.502;2023-06-04T00:11:45;23.20;61.30
22456;DHT22;11395;53.204;6.502;2023-06-04T00:14:12;23.20;61.30
22456;DHT22;11395;53.204;6.502;2023-06-04T00:16:38;23.20;61.30
22456;DHT22;11395;53.204;6.502;2023-06-04T00:19:06;23.10;61.40
22456;DHT22;11395;53.204;6.502;2023-06-04T00:21:32;23.20;61.20
22456;DHT22;11395;53.204;6.502;2023-06-04T00:24:00;23.20;61.20
22456;DHT22;11395;53.204;6.502;2023-06-04T00:26:26;23.10;61.40
22456;DHT22;11395;53.204;6.502;2023-06-04T00:28:54;23.00;61.10
22456;DHT22;11395;53.204;6.502;2023-06-04T00:31:20;23.10;61.50
22456;DHT22;11395;53.204;6.502;2023-06-04T00:33:48;23.10;61.50
22456;DHT22;11395;53.204;6.502;2023-06-04T00:36:14;23.10;61.30
22456;DHT22;11395;53.204;6.502;2023-06-04T00:38:40;23.10;61.40
22456;DHT22;11395;53.204;6.502;2023-06-04T00:41:06;23.00;61.30
22456;DHT22;11395;53.204;6.502;2023-06-04T00:43:32;23.20;61.70
22456;DHT22;11395;53.204;6.502;2023-06-04T00:45:59;23.00;61.50
22456;DHT22;11395;53.204;6.502;2023-06-04T00:48:26;23.00;61.60
22456;DHT22;11395;53.204;6.502;2023-06-04T00:50:53;22.90;61.60
22456;DHT22;11395;53.204;6.502;2023-06-04T00:53:21;22.90;61.60
22456;DHT22;11395;53.204;6.502;2023-06-04T00:55:48;22.90;61.70
22456;DHT22;11395;53.204;6.502;2023-06-04T00:58:14;22.90;61.70
22456;DHT22;11395;53.204;6.502;2023-06-04T01:00:42;22.90;61.90
22456;DHT22;11395;53.204;6.502;2023-06-04T01:03:14;22.90;61.90
22456;DHT22;11395;53.204;6.502;2023-06-04T01:08:50;22.90;62.00
22456;DHT22;11395;53.204;6.502;2023-06-04T01:11:36;22.80;62.00
22456;DHT22;11395;53.204;6.502;2023-06-04T01:14:03;22.80;61.80
22456;DHT22;11395;53.204;6.502;2023-06-04T01:16:56;22.80;61.80
22456;DHT22;11395;53.204;6.502;2023-06-04T01:27:55;22.70;61.80
22456;DHT22;11395;53.204;6.502;2023-06-04T01:30:27;22.70;62.00
22456;DHT22;11395;53.204;6.502;2023-06-04T01:32:56;22.70;61.80
22456;DHT22;11395;53.204;6.502;2023-06-04T01:35:22;22.70;62.00
22456;DHT22;11395;53.204;6.502;2023-06-04T01:37:49;22.70;62.00
22456;DHT22;11395;53.204;6.502;2023-06-04T01:40:17;22.70;62.10
22456;DHT22;11395;53.204;6.502;2023-06-04T01:42:43;22.70;62.10
22456;DHT22;11395;53.204;6.502;2023-06-04T01:45:10;22.70;62.20
22456;DHT22;11395;53.204;6.502;2023-06-04T01:47:36;22.60;62.10
22456;DHT22;11395;53.204;6.502;2023-06-04T01:50:06;22.80;62.10
22456;DHT22;11395;53.204;6.502;2023-06-04T01:52:35;22.60;62.90
22456;DHT22;11395;53.204;6.502;2023-06-04T01:55:04;22.70;62.00
22456;DHT22;11395;53.204;6.502;2023-06-04T01:57:30;22.60;62.20
22456;DHT22;11395;53.204;6.502;2023-06-04T01:59:56;22.60;62.20
22456;DHT22;11395;53.204;6.502;2023-06-04T02:02:23;22.50;62.30
22456;DHT22;11395;53.204;6.502;2023-06-04T02:04:49;22.60;62.20
22456;DHT22;11395;53.204;6.502;2023-06-04T02:07:19;22.50;62.30
22456;DHT22;11395;53.204;6.502;2023-06-04T02:09:47;22.50;62.30
22456;DHT22;11395;53.204;6.502;2023-06-04T02:12:13;22.50;62.20
22456;DHT22;11395;53.204;6.502;2023-06-04T02:14:40;22.80;62.50
22456;DHT22;11395;53.204;6.502;2023-06-04T02:17:13;22.40;62.20
22456;DHT22;11395;53.204;6.502;2023-06-04T02:19:43;22.40;62.20
22456;DHT22;11395;53.204;6.502;2023-06-04T02:22:17;22.50;62.30
22456;DHT22;11395;53.204;6.502;2023-06-04T02:24:44;22.40;62.40
22456;DHT22;11395;53.204;6.502;2023-06-04T02:27:11;22.40;62.50
22456;DHT22;11395;53.204;6.502;2023-06-04T02:29:38;22.40;62.50
22456;DHT22;11395;53.204;6.502;2023-06-04T02:32:05;22.40;62.50
22456;DHT22;11395;53.204;6.502;2023-06-04T02:34:32;22.40;62.60
22456;DHT22;11395;53.204;6.502;2023-06-04T02:37:00;22.40;62.50
22456;DHT22;11395;53.204;6.502;2023-06-04T02:39:26;22.30;62.40
22456;DHT22;11395;53.204;6.502;2023-06-04T02:41:53;22.40;62.60
22456;DHT22;11395;53.204;6.502;2023-06-04T02:44:19;22.30;62.50
22456;DHT22;11395;53.204;6.502;2023-06-04T02:46:45;22.20;62.40
22456;DHT22;11395;53.204;6.502;2023-06-04T02:49:11;22.40;62.60
22456;DHT22;11395;53.204;6.502;2023-06-04T02:51:41;22.20;62.40
22456;DHT22;11395;53.204;6.502;2023-06-04T02:54:07;22.30;62.60
22456;DHT22;11395;53.204;6.502;2023-06-04T02:56:34;22.30;62.70
22456;DHT22;11395;53.204;6.502;2023-06-04T02:59:01;22.20;62.70
22456;DHT22;11395;53.204;6.502;2023-06-04T03:01:27;22.30;62.70
22456;DHT22;11395;53.204;6.502;2023-06-04T03:03:54;22.50;62.80
22456;DHT22;11395;53.204;6.502;2023-06-04T03:06:22;22.30;63.60
22456;DHT22;11395;53.204;6.502;2023-06-04T03:08:49;22.20;62.60
22456;DHT22;11395;53.204;6.502;2023-06-04T03:11:16;22.40;62.90
22456;DHT22;11395;53.204;6.502;2023-06-04T03:13:43;22.20;62.80
22456;DHT22;11395;53.204;6.502;2023-06-04T03:16:09;22.20;62.80
22456;DHT22;11395;53.204;6.502;2023-06-04T03:18:44;22.10;62.70
22456;DHT22;11395;53.204;6.502;2023-06-04T03:21:11;22.10;62.80
22456;DHT22;11395;53.204;6.502;2023-06-04T03:23:38;22.10;62.70
22456;DHT22;11395;53.204;6.502;2023-06-04T03:26:05;22.10;62.80
22456;DHT22;11395;53.204;6.502;2023-06-04T03:28:32;22.10;62.80
22456;DHT22;11395;53.204;6.502;2023-06-04T03:31:00;21.80;62.60
22456;DHT22;11395;53.204;6.502;2023-06-04T03:33:27;21.90;62.70
22456;DHT22;11395;53.204;6.502;2023-06-04T03:35:53;22.10;62.80
22456;DHT22;11395;53.204;6.502;2023-06-04T03:38:23;22.20;62.90
22456;DHT22;11395;53.204;6.502;2023-06-04T03:40:49;22.10;62.80
22456;DHT22;11395;53.204;6.502;2023-06-04T03:43:16;22.10;63.60
22456;DHT22;11395;53.204;6.502;2023-06-04T03:45:43;22.10;62.70
22456;DHT22;11395;53.204;6.502;2023-06-04T03:48:11;22.10;62.70
22456;DHT22;11395;53.204;6.502;2023-06-04T03:50:37;22.10;62.70
22456;DHT22;11395;53.204;6.502;2023-06-04T03:53:03;22.00;62.80
22456;DHT22;11395;53.204;6.502;2023-06-04T03:55:32;22.00;62.70
22456;DHT22;11395;53.204;6.502;2023-06-04T03:57:59;22.00;62.50
22456;DHT22;11395;53.204;6.502;2023-06-04T04:00:25;22.00;62.80
22456;DHT22;11395;53.204;6.502;2023-06-04T04:02:54;22.00;62.50
22456;DHT22;11395;53.204;6.502;2023-06-04T04:05:26;22.00;62.80
22456;DHT22;11395;53.204;6.502;2023-06-04T04:07:53;22.00;62.60
22456;DHT22;11395;53.204;6.502;2023-06-04T04:10:31;22.10;62.10
22456;DHT22;11395;53.204;6.502;2023-06-04T04:12:57;22.20;62.30
22456;DHT22;11395;53.204;6.502;2023-06-04T04:15:25;22.30;62.10
22456;DHT22;11395;53.204;6.502;2023-06-04T04:17:52;22.40;61.70
22456;DHT22;11395;53.204;6.502;2023-06-04T04:20:19;22.60;61.30
22456;DHT22;11395;53.204;6.502;2023-06-04T04:22:51;22.70;61.20
22456;DHT22;11395;53.204;6.502;2023-06-04T04:25:17;22.80;61.00
22456;DHT22;11395;53.204;6.502;2023-06-04T04:27:43;22.90;60.80
22456;DHT22;11395;53.204;6.502;2023-06-04T04:30:11;23.00;60.60
22456;DHT22;11395;53.204;6.502;2023-06-04T04:32:41;23.10;60.50
22456;DHT22;11395;53.204;6.502;2023-06-04T04:35:15;23.20;60.30
22456;DHT22;11395;53.204;6.502;2023-06-04T04:37:45;23.30;60.10
22456;DHT22;11395;53.204;6.502;2023-06-04T04:40:12;23.40;60.00
22456;DHT22;11395;53.204;6.502;2023-06-04T04:42:42;23.40;59.80
22456;DHT22;11395;53.204;6.502;2023-06-04T04:45:10;23.50;59.70
22456;DHT22;11395;53.204;6.502;2023-06-04T04:47:37;23.60;59.60
22456;DHT22;11395;53.204;6.502;2023-06-04T04:50:05;23.60;60.20
22456;DHT22;11395;53.204;6.502;2023-06-04T04:52:31;23.70;59.50
22456;DHT22;11395;53.204;6.502;2023-06-04T04:54:58;23.70;59.40
22456;DHT22;11395;53.204;6.502;2023-06-04T04:57:27;23.70;59.30
22456;DHT22;11395;53.204;6.502;2023-06-04T04:59:55;23.80;59.20
22456;DHT22;11395;53.204;6.502;2023-06-04T05:02:21;23.80;59.20
22456;DHT22;11395;53.204;6.502;2023-06-04T05:04:48;23.80;59.10
22456;DHT22;11395;53.204;6.502;2023-06-04T05:07:15;23.80;59.10
22456;DHT22;11395;53.204;6.502;2023-06-04T05:09:42;23.80;59.10
22456;DHT22;11395;53.204;6.502;2023-06-04T05:12:09;23.80;59.00
22456;DHT22;11395;53.204;6.502;2023-06-04T05:14:36;23.80;59.00
22456;DHT22;11395;53.204;6.502;2023-06-04T05:17:03;23.80;59.00
22456;DHT22;11395;53.204;6.502;2023-06-04T05:19:29;23.80;59.10
22456;DHT22;11395;53.204;6.502;2023-06-04T05:21:59;23.80;59.00
22456;DHT22;11395;53.204;6.502;2023-06-04T05:24:26;23.80;59.00
22456;DHT22;11395;53.204;6.502;2023-06-04T05:26:55;23.80;58.90
22456;DHT22;11395;53.204;6.502;2023-06-04T05:29:25;23.90;59.00
22456;DHT22;11395;53.204;6.502;2023-06-04T05:31:52;23.90;58.90
22456;DHT22;11395;53.204;6.502;2023-06-04T05:34:20;23.90;58.90
22456;DHT22;11395;53.204;6.502;2023-06-04T05:36:48;23.90;58.90
22456;DHT22;11395;53.204;6.502;2023-06-04T05:39:14;23.90;58.90
22456;DHT22;11395;53.204;6.502;2023-06-04T05:41:50;24.00;58.90
22456;DHT22;11395;53.204;6.502;2023-06-04T05:44:17;24.00;58.80
22456;DHT22;11395;53.204;6.502;2023-06-04T05:46:43;24.10;58.70
22456;DHT22;11395;53.204;6.502;2023-06-04T05:49:10;24.20;58.70
22456;DHT22;11395;53.204;6.502;2023-06-04T05:51:36;24.30;58.50
22456;DHT22;11395;53.204;6.502;2023-06-04T05:54:02;24.40;58.40
22456;DHT22;11395;53.204;6.502;2023-06-04T05:56:33;24.50;58.20
22456;DHT22;11395;53.204;6.502;2023-06-04T05:59:00;24.60;58.10
22456;DHT22;11395;53.204;6.502;2023-06-04T06:01:26;24.70;58.00
22456;DHT22;11395;53.204;6.502;2023-06-04T06:03:54;24.70;57.70
22456;DHT22;11395;53.204;6.502;2023-06-04T06:06:23;24.90;57.60
22456;DHT22;11395;53.204;6.502;2023-06-04T06:08:49;24.90;57.50
22456;DHT22;11395;53.204;6.502;2023-06-04T06:11:18;25.00;57.30
22456;DHT22;11395;53.204;6.502;2023-06-04T06:13:45;25.00;57.20
22456;DHT22;11395;53.204;6.502;2023-06-04T06:16:12;25.20;57.00
22456;DHT22;11395;53.204;6.502;2023-06-04T06:18:38;25.30;56.80
22456;DHT22;11395;53.204;6.502;2023-06-04T06:21:04;25.40;56.70
22456;DHT22;11395;53.204;6.502;2023-06-04T06:23:31;25.70;56.80
22456;DHT22;11395;53.204;6.502;2023-06-04T06:25:57;25.60;56.40
22456;DHT22;11395;53.204;6.502;2023-06-04T06:28:29;25.70;56.30
22456;DHT22;11395;53.204;6.502;2023-06-04T06:30:56;25.80;56.10
22456;DHT22;11395;53.204;6.502;2023-06-04T06:33:22;26.00;55.90
22456;DHT22;11395;53.204;6.502;2023-06-04T06:35:49;26.00;55.60
22456;DHT22;11395;53.204;6.502;2023-06-04T06:38:15;26.10;55.50
22456;DHT22;11395;53.204;6.502;2023-06-04T06:40:41;26.20;55.40
22456;DHT22;11395;53.204;6.502;2023-06-04T06:43:08;26.30;55.30
22456;DHT22;11395;53.204;6.502;2023-06-04T06:45:34;26.40;55.10
22456;DHT22;11395;53.204;6.502;2023-06-04T06:48:00;26.50;55.00
22456;DHT22;11395;53.204;6.502;2023-06-04T06:50:26;26.60;54.90
22456;DHT22;11395;53.204;6.502;2023-06-04T06:52:52;26.60;54.70
22456;DHT22;11395;53.204;6.502;2023-06-04T06:55:18;26.70;54.60
22456;DHT22;11395;53.204;6.502;2023-06-04T06:57:44;26.70;54.20
22456;DHT22;11395;53.204;6.502;2023-06-04T07:00:11;26.80;54.10
22456;DHT22;11395;53.204;6.502;2023-06-04T07:02:37;26.90;54.00
22456;DHT22;11395;53.204;6.502;2023-06-04T07:05:04;27.00;53.80
22456;DHT22;11395;53.204;6.502;2023-06-04T07:07:30;27.10;53.60
22456;DHT22;11395;53.204;6.502;2023-06-04T07:09:57;27.20;53.70
22456;DHT22;11395;53.204;6.502;2023-06-04T07:12:23;27.30;53.60
22456;DHT22;11395;53.204;6.502;2023-06-04T07:14:49;27.40;53.70
22456;DHT22;11395;53.204;6.502;2023-06-04T07:17:15;27.60;53.10
22456;DHT22;11395;53.204;6.502;2023-06-04T07:19:41;27.80;53.10
22456;DHT22;11395;53.204;6.502;2023-06-04T07:22:07;27.90;52.50
22456;DHT22;11395;53.204;6.502;2023-06-04T07:24:33;28.10;52.20
22456;DHT22;11395;53.204;6.502;2023-06-04T07:26:59;28.30;51.80
22456;DHT22;11395;53.204;6.502;2023-06-04T07:29:25;28.50;51.30
22456;DHT22;11395;53.204;6.502;2023-06-04T07:31:51;28.80;50.90
22456;DHT22;11395;53.204;6.502;2023-06-04T07:34:18;29.10;50.70
22456;DHT22;11395;53.204;6.502;2023-06-04T07:36:44;29.50;50.00
22456;DHT22;11395;53.204;6.502;2023-06-04T07:39:10;30.00;48.70
22456;DHT22;11395;53.204;6.502;2023-06-04T07:41:36;30.80;47.60
22456;DHT22;11395;53.204;6.502;2023-06-04T07:44:03;31.60;46.50
22456;DHT22;11395;53.204;6.502;2023-06-04T07:46:29;32.30;45.70
22456;DHT22;11395;53.204;6.502;2023-06-04T07:48:55;33.10;44.70
22456;DHT22;11395;53.204;6.502;2023-06-04T07:51:21;33.40;44.00
22456;DHT22;11395;53.204;6.502;2023-06-04T07:53:48;32.00;45.00
22456;DHT22;11395;53.204;6.502;2023-06-04T07:56:15;30.60;46.80
22456;DHT22;11395;53.204;6.502;2023-06-04T07:58:41;29.60;49.20
22456;DHT22;11395;53.204;6.502;2023-06-04T08:01:07;29.20;50.40
22456;DHT22;11395;53.204;6.502;2023-06-04T08:03:33;29.30;51.10
22456;DHT22;11395;53.204;6.502;2023-06-04T08:05:59;30.70;50.20
22456;DHT22;11395;53.204;6.502;2023-06-04T08:08:26;32.40;47.50
22456;DHT22;11395;53.204;6.502;2023-06-04T08:10:52;33.80;45.30
22456;DHT22;11395;53.204;6.502;2023-06-04T08:13:18;34.40;44.20
22456;DHT22;11395;53.204;6.502;2023-06-04T08:15:44;35.30;43.00
22456;DHT22;11395;53.204;6.502;2023-06-04T08:18:10;35.90;42.10
22456;DHT22;11395;53.204;6.502;2023-06-04T08:20:36;36.40;41.20
22456;DHT22;11395;53.204;6.502;2023-06-04T08:23:02;36.30;40.80
22456;DHT22;11395;53.204;6.502;2023-06-04T08:25:29;34.60;41.90
22456;DHT22;11395;53.204;6.502;2023-06-04T08:27:56;32.60;44.10
22456;DHT22;11395;53.204;6.502;2023-06-04T08:30:23;31.10;46.80
22456;DHT22;11395;53.204;6.502;2023-06-04T08:32:49;30.70;48.60
22456;DHT22;11395;53.204;6.502;2023-06-04T08:35:16;31.50;48.00
22456;DHT22;11395;53.204;6.502;2023-06-04T08:37:42;31.60;47.70
22456;DHT22;11395;53.204;6.502;2023-06-04T08:40:09;31.20;48.10
22456;DHT22;11395;53.204;6.502;2023-06-04T08:42:41;31.20;48.20
22456;DHT22;11395;53.204;6.502;2023-06-04T08:45:12;30.80;48.80
22456;DHT22;11395;53.204;6.502;2023-06-04T08:47:48;30.40;49.60
22456;DHT22;11395;53.204;6.502;2023-06-04T08:50:17;30.00;49.80
22456;DHT22;11395;53.204;6.502;2023-06-04T08:52:43;29.80;50.10
22456;DHT22;11395;53.204;6.502;2023-06-04T08:55:11;29.60;50.60
22456;DHT22;11395;53.204;6.502;2023-06-04T08:57:40;29.10;51.40
22456;DHT22;11395;53.204;6.502;2023-06-04T09:00:09;28.60;52.30
22456;DHT22;11395;53.204;6.502;2023-06-04T09:02:36;28.20;53.00
22456;DHT22;11395;53.204;6.502;2023-06-04T09:05:06;28.00;53.40
22456;DHT22;11395;53.204;6.502;2023-06-04T09:07:39;27.80;54.20
22456;DHT22;11395;53.204;6.502;2023-06-04T09:10:09;27.60;54.90
22456;DHT22;11395;53.204;6.502;2023-06-04T09:12:36;27.80;55.40
22456;DHT22;11395;53.204;6.502;2023-06-04T09:15:06;27.80;55.40
22456;DHT22;11395;53.204;6.502;2023-06-04T09:17:33;27.90;55.50
22456;DHT22;11395;53.204;6.502;2023-06-04T09:19:59;28.40;55.10
22456;DHT22;11395;53.204;6.502;2023-06-04T09:22:36;29.00;53.60
22456;DHT22;11395;53.204;6.502;2023-06-04T09:25:06;28.60;52.90
22456;DHT22;11395;53.204;6.502;2023-06-04T09:27:38;28.20;53.60
22456;DHT22;11395;53.204;6.502;2023-06-04T09:30:07;27.80;54.20
22456;DHT22;11395;53.204;6.502;2023-06-04T09:32:36;27.50;56.20
22456;DHT22;11395;53.204;6.502;2023-06-04T09:35:11;27.20;56.10
22456;DHT22;11395;53.204;6.502;2023-06-04T09:37:39;27.00;56.40
22456;DHT22;11395;53.204;6.502;2023-06-04T09:40:07;26.90;56.90
22456;DHT22;11395;53.204;6.502;2023-06-04T09:45:10;26.50;57.90
22456;DHT22;11395;53.204;6.502;2023-06-04T09:47:43;26.40;58.20
22456;DHT22;11395;53.204;6.502;2023-06-04T09:50:13;26.30;58.30
22456;DHT22;11395;53.204;6.502;2023-06-04T09:52:39;26.20;58.50
22456;DHT22;11395;53.204;6.502;2023-06-04T09:55:18;26.20;58.50
22456;DHT22;11395;53.204;6.502;2023-06-04T09:57:47;26.20;58.40
22456;DHT22;11395;53.204;6.502;2023-06-04T10:00:16;26.20;58.30
22456;DHT22;11395;53.204;6.502;2023-06-04T10:02:44;26.20;58.30
22456;DHT22;11395;53.204;6.502;2023-06-04T10:05:12;26.10;58.80
22456;DHT22;11395;53.204;6.502;2023-06-04T10:07:44;26.10;58.80
22456;DHT22;11395;53.204;6.502;2023-06-04T10:10:23;26.10;59.10
22456;DHT22;11395;53.204;6.502;2023-06-04T10:12:58;26.00;59.40
22456;DHT22;11395;53.204;6.502;2023-06-04T10:15:26;25.90;59.60
22456;DHT22;11395;53.204;6.502;2023-06-04T10:17:53;25.90;59.50
22456;DHT22;11395;53.204;6.502;2023-06-04T10:20:21;25.90;59.60
22456;DHT22;11395;53.204;6.502;2023-06-04T10:22:48;25.90;59.50
22456;DHT22;11395;53.204;6.502;2023-06-04T10:25:15;26.00;59.30
22456;DHT22;11395;53.204;6.502;2023-06-04T10:27:43;26.00;59.40
22456;DHT22;11395;53.204;6.502;2023-06-04T10:30:09;26.00;59.30
22456;DHT22;11395;53.204;6.502;2023-06-04T10:32:36;26.00;59.60
22456;DHT22;11395;53.204;6.502;2023-06-04T10:35:04;25.90;59.30
22456;DHT22;11395;53.204;6.502;2023-06-04T10:37:32;25.90;59.30
22456;DHT22;11395;53.204;6.502;2023-06-04T10:39:58;25.90;59.40
22456;DHT22;11395;53.204;6.502;2023-06-04T10:42:25;26.40;59.90
22456;DHT22;11395;53.204;6.502;2023-06-04T10:44:53;25.90;59.10
22456;DHT22;11395;53.204;6.502;2023-06-04T10:47:27;25.90;59.20
22456;DHT22;11395;53.204;6.502;2023-06-04T10:50:07;25.90;59.20
22456;DHT22;11395;53.204;6.502;2023-06-04T10:52:34;25.90;59.20
22456;DHT22;11395;53.204;6.502;2023-06-04T10:55:04;26.00;59.40
22456;DHT22;11395;53.204;6.502;2023-06-04T10:57:31;25.80;59.30
22456;DHT22;11395;53.204;6.502;2023-06-04T10:59:59;25.80;59.80
22456;DHT22;11395;53.204;6.502;2023-06-04T11:02:26;25.80;59.30
22456;DHT22;11395;53.204;6.502;2023-06-04T11:05:03;25.90;59.30
22456;DHT22;11395;53.204;6.502;2023-06-04T11:07:45;25.80;59.30
22456;DHT22;11395;53.204;6.502;2023-06-04T11:10:12;25.90;59.30
22456;DHT22;11395;53.204;6.502;2023-06-04T11:12:46;25.90;59.40
22456;DHT22;11395;53.204;6.502;2023-06-04T11:15:14;25.80;59.40
22456;DHT22;11395;53.204;6.502;2023-06-04T11:17:54;25.80;59.20
22456;DHT22;11395;53.204;6.502;2023-06-04T11:20:21;25.80;59.30
22456;DHT22;11395;53.204;6.502;2023-06-04T11:22:55;25.70;59.40
22456;DHT22;11395;53.204;6.502;2023-06-04T11:25:25;25.70;59.60
22456;DHT22;11395;53.204;6.502;2023-06-04T11:27:53;25.70;59.70
22456;DHT22;11395;53.204;6.502;2023-06-04T11:30:19;25.70;59.60
22456;DHT22;11395;53.204;6.502;2023-06-04T11:32:46;25.70;59.60
22456;DHT22;11395;53.204;6.502;2023-06-04T11:35:12;25.70;59.20
22456;DHT22;11395;53.204;6.502;2023-06-04T11:37:38;25.70;60.10
22456;DHT22;11395;53.204;6.502;2023-06-04T11:40:20;25.70;59.50
22456;DHT22;11395;53.204;6.502;2023-06-04T11:42:47;25.70;59.20
22456;DHT22;11395;53.204;6.502;2023-06-04T11:45:14;25.70;59.40
22456;DHT22;11395;53.204;6.502;2023-06-04T11:47:45;25.60;59.30
22456;DHT22;11395;53.204;6.502;2023-06-04T11:50:12;25.60;59.40
22456;DHT22;11395;53.204;6.502;2023-06-04T11:52:39;25.60;59.40
22456;DHT22;11395;53.204;6.502;2023-06-04T11:55:12;25.70;59.30
22456;DHT22;11395;53.204;6.502;2023-06-04T11:57:40;25.70;59.40
22456;DHT22;11395;53.204;6.502;2023-06-04T12:00:07;25.60;59.50
22456;DHT22;11395;53.204;6.502;2023-06-04T12:02:37;25.60;59.60
22456;DHT22;11395;53.204;6.502;2023-06-04T12:05:14;25.60;59.60
22456;DHT22;11395;53.204;6.502;2023-06-04T12:07:40;25.50;59.50
22456;DHT22;11395;53.204;6.502;2023-06-04T12:10:08;25.60;59.60
22456;DHT22;11395;53.204;6.502;2023-06-04T12:12:40;25.60;59.30
22456;DHT22;11395;53.204;6.502;2023-06-04T12:15:08;25.60;59.30
22456;DHT22;11395;53.204;6.502;2023-06-04T12:17:36;25.50;59.10
22456;DHT22;11395;53.204;6.502;2023-06-04T12:20:03;25.60;59.10
22456;DHT22;11395;53.204;6.502;2023-06-04T12:22:31;25.60;59.10
22456;DHT22;11395;53.204;6.502;2023-06-04T12:24:58;25.50;59.10
22456;DHT22;11395;53.204;6.502;2023-06-04T12:27:26;25.60;59.20
22456;DHT22;11395;53.204;6.502;2023-06-04T12:32:26;25.60;59.20
22456;DHT22;11395;53.204;6.502;2023-06-04T12:34:53;25.60;59.10
22456;DHT22;11395;53.204;6.502;2023-06-04T12:37:22;25.70;59.20
22456;DHT22;11395;53.204;6.502;2023-06-04T12:39:48;25.60;59.10
22456;DHT22;11395;53.204;6.502;2023-06-04T12:42:14;25.60;59.10
22456;DHT22;11395;53.204;6.502;2023-06-04T12:44:41;25.70;59.20
22456;DHT22;11395;53.204;6.502;2023-06-04T12:47:08;25.60;59.20
22456;DHT22;11395;53.204;6.502;2023-06-04T12:49:34;25.60;59.40
22456;DHT22;11395;53.204;6.502;2023-06-04T12:52:00;25.60;58.60
22456;DHT22;11395;53.204;6.502;2023-06-04T12:54:26;25.50;58.50
22456;DHT22;11395;53.204;6.502;2023-06-04T12:56:53;25.50;58.60
22456;DHT22;11395;53.204;6.502;2023-06-04T12:59:23;25.50;58.60
22456;DHT22;11395;53.204;6.502;2023-06-04T13:01:50;25.50;58.60
22456;DHT22;11395;53.204;6.502;2023-06-04T13:04:16;25.50;58.80
22456;DHT22;11395;53.204;6.502;2023-06-04T13:06:42;25.50;58.70
22456;DHT22;11395;53.204;6.502;2023-06-04T13:09:08;25.60;58.80
22456;DHT22;11395;53.204;6.502;2023-06-04T13:11:37;25.50;58.80
22456;DHT22;11395;53.204;6.502;2023-06-04T13:14:04;25.50;59.20
22456;DHT22;11395;53.204;6.502;2023-06-04T13:16:30;25.50;59.20
22456;DHT22;11395;53.204;6.502;2023-06-04T13:18:56;25.50;59.00
22456;DHT22;11395;53.204;6.502;2023-06-04T13:21:22;25.50;59.10
22456;DHT22;11395;53.204;6.502;2023-06-04T13:23:49;25.60;59.10
22456;DHT22;11395;53.204;6.502;2023-06-04T13:26:18;25.50;59.00
22456;DHT22;11395;53.204;6.502;2023-06-04T13:28:44;25.60;58.90
22456;DHT22;11395;53.204;6.502;2023-06-04T13:31:10;25.50;59.10
22456;DHT22;11395;53.204;6.502;2023-06-04T13:33:36;25.50;59.00
22456;DHT22;11395;53.204;6.502;2023-06-04T13:36:03;25.60;59.00
22456;DHT22;11395;53.204;6.502;2023-06-04T13:38:30;25.60;58.60
22456;DHT22;11395;53.204;6.502;2023-06-04T13:40:56;25.50;59.50
22456;DHT22;11395;53.204;6.502;2023-06-04T13:43:22;25.50;59.40
22456;DHT22;11395;53.204;6.502;2023-06-04T13:45:48;25.60;59.40
22456;DHT22;11395;53.204;6.502;2023-06-04T13:48:15;25.60;60.50
22456;DHT22;11395;53.204;6.502;2023-06-04T13:50:42;25.60;59.60
22456;DHT22;11395;53.204;6.502;2023-06-04T13:53:09;25.60;60.90
22456;DHT22;11395;53.204;6.502;2023-06-04T13:55:35;25.60;60.00
22456;DHT22;11395;53.204;6.502;2023-06-04T13:58:01;25.60;59.60
22456;DHT22;11395;53.204;6.502;2023-06-04T14:00:27;25.60;59.40
22456;DHT22;11395;53.204;6.502;2023-06-04T14:02:56;25.60;59.30
22456;DHT22;11395;53.204;6.502;2023-06-04T14:05:24;25.70;59.30
22456;DHT22;11395;53.204;6.502;2023-06-04T14:07:51;25.70;59.30
22456;DHT22;11395;53.204;6.502;2023-06-04T14:10:17;25.70;59.20
22456;DHT22;11395;53.204;6.502;2023-06-04T14:12:43;25.70;59.20
22456;DHT22;11395;53.204;6.502;2023-06-04T14:15:10;25.70;59.20
22456;DHT22;11395;53.204;6.502;2023-06-04T14:17:38;25.70;59.30
22456;DHT22;11395;53.204;6.502;2023-06-04T14:20:05;25.70;59.30
22456;DHT22;11395;53.204;6.502;2023-06-04T14:22:34;25.70;59.40
22456;DHT22;11395;53.204;6.502;2023-06-04T14:25:05;25.70;59.50
22456;DHT22;11395;53.204;6.502;2023-06-04T14:27:32;25.70;59.30
22456;DHT22;11395;53.204;6.502;2023-06-04T14:29:59;25.70;59.40
22456;DHT22;11395;53.204;6.502;2023-06-04T14:32:25;25.70;59.40
22456;DHT22;11395;53.204;6.502;2023-06-04T14:34:51;25.70;59.40
22456;DHT22;11395;53.204;6.502;2023-06-04T14:37:17;25.70;59.50
22456;DHT22;11395;53.204;6.502;2023-06-04T14:39:45;25.70;59.40
22456;DHT22;11395;53.204;6.502;2023-06-04T14:42:12;25.70;59.60
22456;DHT22;11395;53.204;6.502;2023-06-04T14:44:38;25.70;59.40
22456;DHT22;11395;53.204;6.502;2023-06-04T14:47:05;25.70;59.90
22456;DHT22;11395;53.204;6.502;2023-06-04T14:49:31;25.60;60.00
22456;DHT22;11395;53.204;6.502;2023-06-04T14:51:57;25.70;59.90
22456;DHT22;11395;53.204;6.502;2023-06-04T14:54:24;25.70;59.90
22456;DHT22;11395;53.204;6.502;2023-06-04T14:56:50;25.60;59.90
22456;DHT22;11395;53.204;6.502;2023-06-04T14:59:16;25.70;59.90
22456;DHT22;11395;53.204;6.502;2023-06-04T15:01:42;25.70;60.00
22456;DHT22;11395;53.204;6.502;2023-06-04T15:04:08;25.70;60.00
22456;DHT22;11395;53.204;6.502;2023-06-04T15:06:34;25.90;60.10
22456;DHT22;11395;53.204;6.502;2023-06-04T15:09:01;25.70;60.20
22456;DHT22;11395;53.204;6.502;2023-06-04T15:11:27;25.70;60.00
22456;DHT22;11395;53.204;6.502;2023-06-04T15:13:54;25.70;59.80
22456;DHT22;11395;53.204;6.502;2023-06-04T15:16:20;25.70;60.10
22456;DHT22;11395;53.204;6.502;2023-06-04T15:18:47;25.70;60.60
22456;DHT22;11395;53.204;6.502;2023-06-04T15:21:14;25.60;60.60
22456;DHT22;11395;53.204;6.502;2023-06-04T15:23:40;25.60;60.20
22456;DHT22;11395;53.204;6.502;2023-06-04T15:26:06;25.60;60.30
22456;DHT22;11395;53.204;6.502;2023-06-04T15:28:33;25.60;60.10
22456;DHT22;11395;53.204;6.502;2023-06-04T15:30:59;25.70;60.50
22456;DHT22;11395;53.204;6.502;2023-06-04T15:33:25;25.60;60.30
22456;DHT22;11395;53.204;6.502;2023-06-04T15:35:51;25.70;60.70
22456;DHT22;11395;53.204;6.502;2023-06-04T15:38:17;25.60;62.10
22456;DHT22;11395;53.204;6.502;2023-06-04T15:40:43;25.60;60.80
22456;DHT22;11395;53.204;6.502;2023-06-04T15:43:09;25.60;59.00
22456;DHT22;11395;53.204;6.502;2023-06-04T15:45:35;25.50;57.30
22456;DHT22;11395;53.204;6.502;2023-06-04T15:48:02;25.50;57.70
22456;DHT22;11395;53.204;6.502;2023-06-04T15:50:28;25.40;58.20